Time;durP1;ratioP1;P1;durP2;ratioP2;P2;SDS_P1;SDS_P2;PMS_P1;PMS_P2;Temp;Humidity;BMP_temperature;BMP_pressure;BME280_temperature;BME280_humidity;BME280_pressure;Samples;Min_cycle;Max_cycle;Signal;HPM_P1;HPM_P2
2024/01/30 00:01:29;;;;;;;8.80;6.80;;;;;;;;;;5072106;28;20517;-45
2024/01/30 00:03:56;;;;;;;7.53;6.30;;;;;;;;;;5072096;28;20200;-46
2024/01/30 00:06:23;;;;;;;8.50;6.83;;;;;;;;;;5071624;28;20203;-46
2024/01/30 00:08:49;;;;;;;9.90;7.33;;;;;;;;;;5071982;28;20426;-46
2024/01/30 00:11:16;;;;;;;7.67;6.73;;;;;;;;;;5071833;28;20513;-46
2024/01/30 00:13:42;;;;;;;10.90;6.93;;;;;;;;;;5074626;28;20492;-46
2024/01/30 00:16:09;;;;;;;9.10;6.80;;;;;;;;;;5075937;28;20861;-46
2024/01/30 00:18:35;;;;;;;10.73;7.10;;;;;;;;;;5075549;28;20527;-46
2024/01/30 00:21:03;;;;;;;8.40;6.83;;;;;;;;;;5075872;28;20429;-45
2024/01/30 00:23:29;;;;;;;7.57;6.77;;;;;;;;;;5075946;28;20669;-46
2024/01/30 00:25:55;;;;;;;9.37;7.37;;;;;;;;;;5075870;28;20429;-46
2024/01/30 00:28:21;;;;;;;9.47;7.13;;;;;;;;;;5075689;28;20187;-45
2024/01/30 00:30:47;;;;;;;8.53;7.60;;;;;;;;;;5075393;28;20503;-45
2024/01/30 00:33:13;;;;;;;9.10;7.27;;;;;;;;;;5075612;28;20199;-46
2024/01/30 00:35:39;;;;;;;9.90;7.97;;;;;;;;;;5075813;28;20192;-45
2024/01/30 00:38:07;;;;;;;11.67;8.57;;;;;;;;;;5075317;28;20482;-46
2024/01/30 00:40:33;;;;;;;9.50;7.53;;;;;;;;;;5075827;28;20230;-46
2024/01/30 00:42:59;;;;;;;9.70;8.70;;;;;;;;;;5075254;28;20932;-46
2024/01/30 00:45:25;;;;;;;10.37;9.00;;;;;;;;;;5075550;28;20203;-46
2024/01/30 00:47:51;;;;;;;11.67;9.07;;;;;;;;;;5075504;28;20199;-46
2024/01/30 00:50:17;;;;;;;9.37;8.30;;;;;;;;;;5075051;28;20438;-45
2024/01/30 00:52:44;;;;;;;10.27;8.87;;;;;;;;;;5075334;28;20673;-45
2024/01/30 00:55:12;;;;;;;10.63;8.67;;;;;;;;;;5074999;28;20202;-46
2024/01/30 00:57:39;;;;;;;10.83;8.73;;;;;;;;;;5075224;28;20434;-46
2024/01/30 01:00:07;;;;;;;12.73;10.47;;;;;;;;;;5075189;28;20457;-46
2024/01/30 01:02:34;;;;;;;10.37;9.27;;;;;;;;;;5075191;28;20453;-46
2024/01/30 01:05:00;;;;;;;9.90;8.40;;;;;;;;;;5075099;28;20916;-45
2024/01/30 01:07:26;;;;;;;11.67;9.63;;;;;;;;;;5071092;28;20449;-46
2024/01/30 01:09:52;;;;;;;10.67;8.67;;;;;;;;;;5075128;28;20192;-46
2024/01/30 01:12:19;;;;;;;9.77;8.17;;;;;;;;;;5074931;28;20437;-46
2024/01/30 01:14:46;;;;;;;8.80;7.87;;;;;;;;;;5074921;28;20535;-46
2024/01/30 01:17:12;;;;;;;9.47;7.50;;;;;;;;;;5074781;28;20470;-46
2024/01/30 01:19:38;;;;;;;9.13;7.90;;;;;;;;;;5074934;28;20481;-46
2024/01/30 01:22:04;;;;;;;8.70;7.80;;;;;;;;;;5074797;28;20434;-46
2024/01/30 01:24:31;;;;;;;9.70;8.30;;;;;;;;;;5074396;28;20946;-46
2024/01/30 01:26:58;;;;;;;9.13;7.93;;;;;;;;;;5075053;28;20195;-46
2024/01/30 01:29:28;;;;;;;10.03;8.67;;;;;;;;;;5074734;28;20445;-46
2024/01/30 01:31:54;;;;;;;9.63;8.20;;;;;;;;;;5074607;28;20477;-46
2024/01/30 01:34:20;;;;;;;9.97;8.77;;;;;;;;;;5074506;28;20438;-46
2024/01/30 01:36:46;;;;;;;10.57;8.60;;;;;;;;;;5074779;28;20441;-47
2024/01/30 01:39:12;;;;;;;9.73;8.73;;;;;;;;;;5074477;28;20593;-45
2024/01/30 01:41:38;;;;;;;9.53;8.50;;;;;;;;;;5074397;28;20210;-46
2024/01/30 01:44:05;;;;;;;10.60;8.63;;;;;;;;;;5074410;28;20188;-46
2024/01/30 01:46:34;;;;;;;10.40;8.87;;;;;;;;;;5074450;28;20434;-46
2024/01/30 01:49:00;;;;;;;10.83;9.67;;;;;;;;;;5074515;28;20895;-46
2024/01/30 01:51:28;;;;;;;12.70;8.77;;;;;;;;;;5074612;28;20844;-46
2024/01/30 01:53:54;;;;;;;10.70;8.97;;;;;;;;;;5074334;28;20437;-46
2024/01/30 01:56:20;;;;;;;11.93;9.27;;;;;;;;;;5074168;28;20442;-46
2024/01/30 01:58:46;;;;;;;10.50;9.40;;;;;;;;;;5074208;28;20569;-46
2024/01/30 02:01:13;;;;;;;13.43;9.93;;;;;;;;;;5074184;28;20211;-46
2024/01/30 02:03:41;;;;;;;12.93;10.30;;;;;;;;;;5074194;28;20493;-46
2024/01/30 02:06:07;;;;;;;13.07;10.43;;;;;;;;;;5073851;28;21005;-46
2024/01/30 02:08:33;;;;;;;13.10;10.23;;;;;;;;;;5074037;28;20446;-46
2024/01/30 02:11:00;;;;;;;12.70;10.50;;;;;;;;;;5073932;28;20223;-46
2024/01/30 02:13:26;;;;;;;13.50;11.50;;;;;;;;;;5073973;28;20255;-46
2024/01/30 02:15:52;;;;;;;11.03;9.93;;;;;;;;;;5072164;28;20999;-46
2024/01/30 02:18:19;;;;;;;10.53;9.40;;;;;;;;;;5073629;28;20219;-46
2024/01/30 02:20:47;;;;;;;12.00;9.97;;;;;;;;;;5073864;28;20859;-46
2024/01/30 02:23:15;;;;;;;12.23;9.43;;;;;;;;;;5073657;28;20444;-46
2024/01/30 02:25:44;;;;;;;11.17;9.97;;;;;;;;;;5073643;28;21013;-46
2024/01/30 02:28:10;;;;;;;11.53;10.33;;;;;;;;;;5073578;28;20487;-46
2024/01/30 02:30:36;;;;;;;12.83;9.83;;;;;;;;;;5073476;28;20944;-46
2024/01/30 02:33:02;;;;;;;10.73;9.63;;;;;;;;;;5073544;28;20430;-46
2024/01/30 02:35:28;;;;;;;11.73;9.90;;;;;;;;;;5072572;28;20223;-46
2024/01/30 02:37:54;;;;;;;10.30;8.93;;;;;;;;;;5073358;28;20969;-46
2024/01/30 02:40:21;;;;;;;10.37;9.30;;;;;;;;;;5071897;28;20607;-46
2024/01/30 02:42:47;;;;;;;9.80;8.70;;;;;;;;;;5073688;28;20442;-46
2024/01/30 02:45:13;;;;;;;10.53;9.10;;;;;;;;;;5073264;28;20452;-46
2024/01/30 02:47:40;;;;;;;11.13;9.77;;;;;;;;;;5071636;28;20560;-46
2024/01/30 02:50:06;;;;;;;10.53;9.43;;;;;;;;;;5073186;28;20441;-46
2024/01/30 02:52:32;;;;;;;12.60;10.43;;;;;;;;;;5073225;28;20438;-46
2024/01/30 02:54:58;;;;;;;11.60;8.97;;;;;;;;;;5073064;28;20441;-46
2024/01/30 02:57:26;;;;;;;12.23;10.13;;;;;;;;;;5071218;28;20438;-46
2024/01/30 02:59:52;;;;;;;11.63;9.27;;;;;;;;;;5069449;28;20728;-46
2024/01/30 03:02:18;;;;;;;13.07;9.97;;;;;;;;;;5072932;28;20503;-46
2024/01/30 03:04:44;;;;;;;10.77;9.67;;;;;;;;;;5069487;28;20941;-46
2024/01/30 03:07:10;;;;;;;11.90;9.03;;;;;;;;;;5067688;28;20479;-46
2024/01/30 03:09:36;;;;;;;12.83;9.90;;;;;;;;;;5072875;28;20188;-46
2024/01/30 03:12:02;;;;;;;12.40;9.60;;;;;;;;;;5072700;28;20537;-46
2024/01/30 03:14:30;;;;;;;11.73;10.33;;;;;;;;;;5067475;28;20824;-46
2024/01/30 03:16:56;;;;;;;10.83;9.37;;;;;;;;;;5067616;28;20462;-46
2024/01/30 03:19:22;;;;;;;11.80;9.63;;;;;;;;;;5072511;28;20465;-46
2024/01/30 03:21:48;;;;;;;11.10;9.37;;;;;;;;;;5066006;28;20683;-46
2024/01/30 03:24:14;;;;;;;12.87;9.47;;;;;;;;;;5067315;28;20203;-46
2024/01/30 03:26:40;;;;;;;12.17;9.77;;;;;;;;;;5067454;28;20200;-46
2024/01/30 03:29:06;;;;;;;11.83;10.47;;;;;;;;;;5070985;28;20495;-46
2024/01/30 03:31:33;;;;;;;11.77;10.33;;;;;;;;;;5069056;28;20445;-46
2024/01/30 03:33:59;;;;;;;14.27;11.33;;;;;;;;;;5069024;28;20689;-46
2024/01/30 03:36:25;;;;;;;14.30;11.73;;;;;;;;;;5067158;28;20429;-46
2024/01/30 03:38:51;;;;;;;12.80;11.50;;;;;;;;;;5068999;28;20277;-46
2024/01/30 03:41:17;;;;;;;14.30;11.33;;;;;;;;;;5065335;28;20442;-46
2024/01/30 03:43:43;;;;;;;15.17;12.13;;;;;;;;;;5063899;28;20191;-46
2024/01/30 03:46:09;;;;;;;13.13;11.83;;;;;;;;;;5065970;28;20226;-46
2024/01/30 03:48:36;;;;;;;13.47;12.07;;;;;;;;;;5065416;28;20438;-46
2024/01/30 03:51:03;;;;;;;16.00;12.30;;;;;;;;;;5063715;28;20203;-46
2024/01/30 03:53:29;;;;;;;14.13;12.03;;;;;;;;;;5065394;28;20477;-46
2024/01/30 03:55:55;;;;;;;13.90;11.77;;;;;;;;;;5068732;28;20437;-46
2024/01/30 03:58:21;;;;;;;13.87;12.27;;;;;;;;;;5066997;28;20465;-46
2024/01/30 04:00:47;;;;;;;13.97;11.50;;;;;;;;;;5067034;28;20554;-46
2024/01/30 04:03:13;;;;;;;13.37;11.73;;;;;;;;;;5065360;28;20234;-46
2024/01/30 04:05:40;;;;;;;14.90;11.57;;;;;;;;;;5061884;28;20430;-46
2024/01/30 04:08:06;;;;;;;13.67;11.23;;;;;;;;;;5060088;28;20440;-46
2024/01/30 04:10:32;;;;;;;13.27;10.90;;;;;;;;;;5063385;28;20564;-46
2024/01/30 04:12:59;;;;;;;11.77;10.50;;;;;;;;;;5065165;28;20489;-46
2024/01/30 04:15:25;;;;;;;12.33;10.90;;;;;;;;;;5065079;28;20199;-46
2024/01/30 04:17:51;;;;;;;14.77;11.50;;;;;;;;;;5063351;28;20461;-46
2024/01/30 04:20:17;;;;;;;11.17;10.07;;;;;;;;;;5065080;28;20527;-46
2024/01/30 04:22:45;;;;;;;11.07;9.83;;;;;;;;;;5066936;28;20464;-46
2024/01/30 04:25:11;;;;;;;12.17;9.93;;;;;;;;;;5066681;28;20434;-46
2024/01/30 04:27:37;;;;;;;12.70;10.50;;;;;;;;;;5063304;28;20463;-46
2024/01/30 04:30:04;;;;;;;13.53;10.50;;;;;;;;;;5068467;28;20425;-46
2024/01/30 04:32:30;;;;;;;11.37;10.27;;;;;;;;;;5066655;28;20481;-47
2024/01/30 04:34:56;;;;;;;12.33;10.50;;;;;;;;;;5064983;28;20473;-46
2024/01/30 04:37:22;;;;;;;14.27;10.53;;;;;;;;;;5063211;28;20582;-46
2024/01/30 04:39:49;;;;;;;12.33;9.90;;;;;;;;;;5061472;28;20234;-46
2024/01/30 04:42:15;;;;;;;11.97;10.57;;;;;;;;;;5064826;28;20442;-46
2024/01/30 04:44:41;;;;;;;11.90;10.10;;;;;;;;;;5064960;28;20784;-46
2024/01/30 04:47:08;;;;;;;11.63;9.70;;;;;;;;;;5064803;28;20203;-46
2024/01/30 04:49:35;;;;;;;10.90;9.80;;;;;;;;;;5064706;28;20430;-46
2024/01/30 04:52:01;;;;;;;12.03;9.73;;;;;;;;;;5064982;28;20437;-46
2024/01/30 04:54:27;;;;;;;10.03;8.80;;;;;;;;;;5064630;28;20805;-46
2024/01/30 04:56:54;;;;;;;11.47;10.10;;;;;;;;;;5063056;28;20426;-46
2024/01/30 04:59:20;;;;;;;10.93;9.37;;;;;;;;;;5059674;28;20682;-46
2024/01/30 05:01:46;;;;;;;13.07;9.77;;;;;;;;;;5066792;28;20433;-46
2024/01/30 05:04:12;;;;;;;10.83;9.70;;;;;;;;;;5068453;28;20453;-46
2024/01/30 05:06:38;;;;;;;13.37;10.77;;;;;;;;;;5064844;28;20261;-46
2024/01/30 05:09:04;;;;;;;11.40;10.30;;;;;;;;;;5066538;28;20441;-46
2024/01/30 05:11:30;;;;;;;11.70;10.50;;;;;;;;;;5070894;28;20555;-47
2024/01/30 05:13:58;;;;;;;12.00;9.97;;;;;;;;;;5066401;28;20530;-46
2024/01/30 05:16:24;;;;;;;13.27;11.03;;;;;;;;;;5066459;28;20450;-46
2024/01/30 05:18:50;;;;;;;15.33;12.03;;;;;;;;;;5066352;28;20493;-46
2024/01/30 05:21:16;;;;;;;13.90;12.13;;;;;;;;;;5063030;28;20184;-47
2024/01/30 05:23:42;;;;;;;13.67;11.00;;;;;;;;;;5064899;28;20196;-46
2024/01/30 05:26:08;;;;;;;12.57;11.27;;;;;;;;;;5064436;28;20464;-46
2024/01/30 05:28:34;;;;;;;12.43;11.23;;;;;;;;;;5062855;28;20199;-46
2024/01/30 05:31:01;;;;;;;13.10;11.70;;;;;;;;;;5064506;28;20540;-46
2024/01/30 05:33:27;;;;;;;12.87;11.30;;;;;;;;;;5062979;28;20196;-46
2024/01/30 05:35:54;;;;;;;12.97;10.93;;;;;;;;;;5064430;28;20517;-47
2024/01/30 05:38:20;;;;;;;12.90;11.00;;;;;;;;;;5067663;28;20235;-46
2024/01/30 05:40:46;;;;;;;12.00;10.80;;;;;;;;;;5067813;28;20426;-46
2024/01/30 05:43:12;;;;;;;13.00;11.00;;;;;;;;;;5067765;28;20274;-46
2024/01/30 05:45:38;;;;;;;12.87;11.30;;;;;;;;;;5066004;28;20529;-46
2024/01/30 05:48:06;;;;;;;11.97;10.60;;;;;;;;;;5065934;28;20211;-46
2024/01/30 05:50:32;;;;;;;12.87;11.13;;;;;;;;;;5067365;28;20426;-46
2024/01/30 05:52:58;;;;;;;13.80;11.50;;;;;;;;;;5064211;28;20442;-46
2024/01/30 05:55:24;;;;;;;13.23;11.83;;;;;;;;;;5067324;28;20808;-46
2024/01/30 05:57:52;;;;;;;14.77;12.47;;;;;;;;;;5065706;28;20257;-46
2024/01/30 06:00:18;;;;;;;14.40;11.87;;;;;;;;;;5067138;28;20568;-46
2024/01/30 06:02:44;;;;;;;12.87;11.07;;;;;;;;;;5068431;28;20425;-46
2024/01/30 06:05:11;;;;;;;14.50;11.97;;;;;;;;;;5063914;28;20807;-46
2024/01/30 06:07:37;;;;;;;13.67;12.27;;;;;;;;;;5068972;28;20257;-46
2024/01/30 06:10:04;;;;;;;13.57;12.13;;;;;;;;;;5070494;28;20434;-46
2024/01/30 06:12:29;;;;;;;13.40;11.77;;;;;;;;;;5065479;28;20657;-46
2024/01/30 06:14:56;;;;;;;12.37;10.93;;;;;;;;;;5063605;28;20948;-46
2024/01/30 06:17:22;;;;;;;14.70;11.43;;;;;;;;;;5063158;28;20223;-46
2024/01/30 06:19:48;;;;;;;13.93;11.53;;;;;;;;;;5061763;28;21038;-46
2024/01/30 06:22:16;;;;;;;13.00;11.57;;;;;;;;;;5063323;28;20257;-46
2024/01/30 06:24:44;;;;;;;13.13;11.40;;;;;;;;;;5065061;28;20226;-46
2024/01/30 06:27:10;;;;;;;15.57;12.80;;;;;;;;;;5063343;28;20924;-46
2024/01/30 06:29:36;;;;;;;15.87;13.03;;;;;;;;;;5064846;28;20430;-46
2024/01/30 06:32:03;;;;;;;13.57;12.17;;;;;;;;;;5063207;28;20438;-46
2024/01/30 06:34:29;;;;;;;20.27;13.53;;;;;;;;;;5064873;28;20480;-46
2024/01/30 06:36:55;;;;;;;16.23;13.43;;;;;;;;;;5066359;28;20948;-46
2024/01/30 06:39:23;;;;;;;17.27;13.33;;;;;;;;;;5062708;28;20534;-46
2024/01/30 06:41:49;;;;;;;17.73;12.97;;;;;;;;;;5064657;28;20287;-46
2024/01/30 06:44:15;;;;;;;14.37;12.43;;;;;;;;;;5059612;28;20438;-46
2024/01/30 06:46:41;;;;;;;14.90;12.60;;;;;;;;;;5066459;28;20859;-45
2024/01/30 06:49:07;;;;;;;17.87;13.10;;;;;;;;;;5064400;28;20445;-46
2024/01/30 06:51:33;;;;;;;16.10;12.17;;;;;;;;;;5064249;28;20204;-46
2024/01/30 06:53:59;;;;;;;15.20;13.53;;;;;;;;;;5064660;28;20434;-46
2024/01/30 06:56:26;;;;;;;15.40;13.57;;;;;;;;;;5064297;28;20685;-46
2024/01/30 06:58:52;;;;;;;15.50;12.87;;;;;;;;;;5064134;28;20732;-46
2024/01/30 07:01:18;;;;;;;16.77;13.50;;;;;;;;;;5064519;28;20430;-46
2024/01/30 07:03:44;;;;;;;15.07;13.47;;;;;;;;;;5064367;28;20205;-46
2024/01/30 07:06:13;;;;;;;16.30;12.97;;;;;;;;;;5064646;28;20235;-46
2024/01/30 07:08:39;;;;;;;16.77;13.13;;;;;;;;;;5064419;28;20785;-46
2024/01/30 07:11:06;;;;;;;15.40;12.90;;;;;;;;;;5064045;28;20761;-46
2024/01/30 07:13:33;;;;;;;16.30;12.93;;;;;;;;;;5060438;28;21001;-46
2024/01/30 07:15:59;;;;;;;17.73;13.80;;;;;;;;;;5062194;28;20445;-46
2024/01/30 07:18:25;;;;;;;15.33;13.00;;;;;;;;;;5063563;28;20467;-46
2024/01/30 07:20:51;;;;;;;15.73;12.73;;;;;;;;;;5067203;28;20245;-46
2024/01/30 07:23:18;;;;;;;15.33;12.90;;;;;;;;;;5063446;28;20442;-46
2024/01/30 07:25:44;;;;;;;16.03;11.60;;;;;;;;;;5065607;28;20452;-46
2024/01/30 07:28:11;;;;;;;13.30;11.67;;;;;;;;;;5062252;28;20203;-46
2024/01/30 07:30:39;;;;;;;16.10;12.87;;;;;;;;;;5063762;28;20442;-46
2024/01/30 07:33:05;;;;;;;14.40;12.67;;;;;;;;;;5063954;28;20446;-46
2024/01/30 07:35:31;;;;;;;15.90;13.13;;;;;;;;;;5065506;28;20441;-46
2024/01/30 07:37:57;;;;;;;15.30;12.67;;;;;;;;;;5062291;28;20848;-46
2024/01/30 07:40:23;;;;;;;18.10;13.97;;;;;;;;;;5065396;28;20223;-46
2024/01/30 07:42:49;;;;;;;14.90;12.77;;;;;;;;;;5060498;28;20460;-46
2024/01/30 07:45:16;;;;;;;14.90;12.23;;;;;;;;;;5063738;28;20445;-45
2024/01/30 07:47:43;;;;;;;15.53;12.77;;;;;;;;;;5063538;28;20422;-46
2024/01/30 07:50:09;;;;;;;15.10;12.70;;;;;;;;;;5063272;28;20446;-46
2024/01/30 07:52:36;;;;;;;18.17;12.83;;;;;;;;;;5060133;28;21083;-46
2024/01/30 07:55:03;;;;;;;13.90;12.27;;;;;;;;;;5061884;28;20848;-46
2024/01/30 07:57:29;;;;;;;14.27;12.37;;;;;;;;;;5059977;28;20464;-46
2024/01/30 07:59:57;;;;;;;13.17;11.87;;;;;;;;;;5065276;28;20917;-46
2024/01/30 08:02:23;;;;;;;12.67;11.13;;;;;;;;;;5061830;28;20253;-46
2024/01/30 08:04:50;;;;;;;13.97;12.27;;;;;;;;;;5063466;28;20437;-46
2024/01/30 08:07:17;;;;;;;13.77;11.00;;;;;;;;;;5065299;28;20527;-46
2024/01/30 08:09:43;;;;;;;13.17;10.73;;;;;;;;;;5071929;28;20438;-46
2024/01/30 08:12:09;;;;;;;12.87;11.53;;;;;;;;;;5071935;28;20845;-46
2024/01/30 08:14:35;;;;;;;15.27;11.80;;;;;;;;;;5071654;28;20478;-46
2024/01/30 08:17:01;;;;;;;13.93;11.70;;;;;;;;;;5071851;28;20458;-46
2024/01/30 08:19:27;;;;;;;15.10;11.93;;;;;;;;;;5071746;28;20476;-46
2024/01/30 08:21:55;;;;;;;13.00;11.50;;;;;;;;;;5071861;28;20524;-46
2024/01/30 08:24:21;;;;;;;12.30;11.00;;;;;;;;;;5071660;28;20208;-46
2024/01/30 08:26:47;;;;;;;14.47;11.67;;;;;;;;;;5071959;28;20430;-46
2024/01/30 08:29:13;;;;;;;12.93;10.33;;;;;;;;;;5071961;28;20430;-46
2024/01/30 08:31:39;;;;;;;14.73;11.20;;;;;;;;;;5071749;28;20681;-46
2024/01/30 08:34:05;;;;;;;13.43;12.03;;;;;;;;;;5073590;28;20203;-46
2024/01/30 08:36:31;;;;;;;13.93;11.23;;;;;;;;;;5075844;28;20195;-46
2024/01/30 08:38:58;;;;;;;13.50;11.23;;;;;;;;;;5075785;28;20223;-46
2024/01/30 08:41:24;;;;;;;12.23;10.90;;;;;;;;;;5075652;28;20444;-46
2024/01/30 08:43:50;;;;;;;13.03;11.70;;;;;;;;;;5075310;28;20441;-46
2024/01/30 08:46:18;;;;;;;16.23;11.33;;;;;;;;;;5075427;28;20830;-46
2024/01/30 08:48:44;;;;;;;12.50;11.17;;;;;;;;;;5075738;28;20198;-46
2024/01/30 08:51:10;;;;;;;13.37;11.00;;;;;;;;;;5075622;28;20436;-46
2024/01/30 08:53:36;;;;;;;12.53;10.77;;;;;;;;;;5075392;28;20483;-46
2024/01/30 08:56:04;;;;;;;14.77;11.43;;;;;;;;;;5075344;28;20433;-46
2024/01/30 08:58:30;;;;;;;11.80;10.63;;;;;;;;;;5075118;28;20204;-46
2024/01/30 09:00:56;;;;;;;11.93;10.70;;;;;;;;;;5075322;28;20434;-46
2024/01/30 09:03:22;;;;;;;12.10;9.90;;;;;;;;;;5075119;28;20203;-46
2024/01/30 09:05:48;;;;;;;14.20;10.50;;;;;;;;;;5075055;28;20198;-46
2024/01/30 09:08:14;;;;;;;12.33;10.93;;;;;;;;;;5075238;28;20199;-46
2024/01/30 09:10:41;;;;;;;14.97;10.67;;;;;;;;;;5074952;28;20495;-46
2024/01/30 09:13:08;;;;;;;13.37;10.43;;;;;;;;;;5074967;28;20285;-46
2024/01/30 09:15:35;;;;;;;13.70;10.40;;;;;;;;;;5074963;28;20449;-46
2024/01/30 09:18:01;;;;;;;10.80;9.70;;;;;;;;;;5074968;28;20540;-46
2024/01/30 09:20:27;;;;;;;11.00;9.27;;;;;;;;;;5074812;28;20345;-47
2024/01/30 09:22:53;;;;;;;12.33;10.10;;;;;;;;;;5074837;28;20196;-47
2024/01/30 09:25:19;;;;;;;12.97;9.97;;;;;;;;;;5074869;28;20196;-47
2024/01/30 09:27:45;;;;;;;11.77;9.60;;;;;;;;;;5074693;28;20693;-46
2024/01/30 09:30:13;;;;;;;10.93;9.80;;;;;;;;;;5075007;28;20200;-46
2024/01/30 09:32:40;;;;;;;13.73;9.90;;;;;;;;;;5074560;28;20262;-46
2024/01/30 09:35:06;;;;;;;9.60;8.60;;;;;;;;;;5074663;28;20246;-46
2024/01/30 09:37:32;;;;;;;10.40;8.80;;;;;;;;;;5074703;28;20196;-47
2024/01/30 09:39:58;;;;;;;10.23;8.60;;;;;;;;;;5074486;28;20284;-46
2024/01/30 09:42:27;;;;;;;9.87;8.87;;;;;;;;;;5074651;28;20752;-46
2024/01/30 09:44:54;;;;;;;11.00;8.90;;;;;;;;;;5074184;28;20203;-47
2024/01/30 09:47:21;;;;;;;9.80;8.30;;;;;;;;;;5072688;28;20265;-47
2024/01/30 09:49:48;;;;;;;9.97;8.40;;;;;;;;;;5074124;28;20202;-47
2024/01/30 09:52:15;;;;;;;10.60;8.07;;;;;;;;;;5074199;28;20257;-47
2024/01/30 09:54:42;;;;;;;11.20;8.20;;;;;;;;;;5073958;28;20278;-47
2024/01/30 09:57:09;;;;;;;9.70;8.60;;;;;;;;;;5074059;28;20210;-46
2024/01/30 09:59:35;;;;;;;11.87;8.43;;;;;;;;;;5073799;28;20231;-47
2024/01/30 10:02:03;;;;;;;11.00;8.17;;;;;;;;;;5074007;28;20192;-47
2024/01/30 10:04:30;;;;;;;9.10;8.13;;;;;;;;;;5073923;28;20215;-47
2024/01/30 10:06:58;;;;;;;11.23;9.03;;;;;;;;;;5073726;28;20290;-47
2024/01/30 10:09:25;;;;;;;10.47;8.27;;;;;;;;;;5073707;28;20210;-47
2024/01/30 10:11:51;;;;;;;9.63;8.27;;;;;;;;;;5073483;28;20362;-46
2024/01/30 10:14:17;;;;;;;11.73;9.03;;;;;;;;;;5073644;28;20235;-47
2024/01/30 10:16:45;;;;;;;9.57;8.33;;;;;;;;;;5073502;28;20204;-47
2024/01/30 10:19:11;;;;;;;10.77;8.50;;;;;;;;;;5073454;28;20235;-47
2024/01/30 10:21:38;;;;;;;10.80;8.23;;;;;;;;;;5073364;28;20248;-47
2024/01/30 10:24:04;;;;;;;14.97;8.03;;;;;;;;;;5072001;28;20572;-47
2024/01/30 10:26:34;;;;;;;9.40;8.27;;;;;;;;;;5062047;28;20199;-47
2024/01/30 10:29:00;;;;;;;10.50;7.63;;;;;;;;;;5061560;28;20199;-47
2024/01/30 10:31:26;;;;;;;9.60;8.33;;;;;;;;;;5059773;28;20203;-47
2024/01/30 10:33:52;;;;;;;10.47;8.13;;;;;;;;;;5061421;28;20896;-47
2024/01/30 10:36:18;;;;;;;9.00;7.90;;;;;;;;;;5064762;28;20200;-47
2024/01/30 10:38:46;;;;;;;9.90;7.87;;;;;;;;;;5059449;28;20206;-47
2024/01/30 10:41:14;;;;;;;11.47;8.30;;;;;;;;;;5063085;28;20200;-47
2024/01/30 10:43:41;;;;;;;9.37;7.73;;;;;;;;;;5061040;28;20631;-47
2024/01/30 10:46:12;;;;;;;7.83;7.03;;;;;;;;;;5064800;28;20206;-47
2024/01/30 10:48:42;;;;;;;10.97;8.03;;;;;;;;;;5072852;28;20466;-47
2024/01/30 10:51:09;;;;;;;9.20;7.60;;;;;;;;;;5073079;28;20599;-47
2024/01/30 10:53:37;;;;;;;9.77;7.87;;;;;;;;;;5072717;28;20299;-47
2024/01/30 10:56:05;;;;;;;9.57;7.13;;;;;;;;;;5072202;28;20195;-47
2024/01/30 10:58:31;;;;;;;10.60;6.93;;;;;;;;;;5072832;28;20673;-47
2024/01/30 11:00:57;;;;;;;10.00;7.50;;;;;;;;;;5072724;28;20199;-47
2024/01/30 11:03:23;;;;;;;8.00;7.00;;;;;;;;;;5072728;28;20208;-47
2024/01/30 11:05:51;;;;;;;7.90;7.10;;;;;;;;;;5072556;28;20196;-47
2024/01/30 11:08:23;;;;;;;9.70;7.20;;;;;;;;;;5072461;28;20568;-47
2024/01/30 11:10:49;;;;;;;7.97;6.27;;;;;;;;;;5072492;28;20195;-47
2024/01/30 11:13:16;;;;;;;8.50;6.10;;;;;;;;;;5072489;28;20824;-47
2024/01/30 11:15:42;;;;;;;6.97;6.10;;;;;;;;;;5072339;28;20622;-47
2024/01/30 11:18:08;;;;;;;8.20;6.47;;;;;;;;;;5072149;28;20223;-46
2024/01/30 11:20:35;;;;;;;8.53;6.37;;;;;;;;;;5072352;28;20224;-47
2024/01/30 11:23:05;;;;;;;9.53;6.80;;;;;;;;;;5072472;28;20195;-46
2024/01/30 11:25:32;;;;;;;10.27;6.83;;;;;;;;;;5071855;28;20196;-47
2024/01/30 11:27:59;;;;;;;8.07;5.70;;;;;;;;;;5072662;28;20198;-47
2024/01/30 11:30:26;;;;;;;7.20;5.83;;;;;;;;;;5072523;28;20191;-47
2024/01/30 11:32:59;;;;;;;6.20;5.50;;;;;;;;;;5072423;28;20223;-47
2024/01/30 11:35:25;;;;;;;6.07;5.47;;;;;;;;;;5072499;28;20188;-47
2024/01/30 11:37:51;;;;;;;8.03;5.60;;;;;;;;;;5072503;28;20199;-47
2024/01/30 11:40:17;;;;;;;7.73;5.97;;;;;;;;;;5072368;28;20312;-47
2024/01/30 11:42:44;;;;;;;8.27;5.93;;;;;;;;;;5072400;28;20610;-47
2024/01/30 11:45:11;;;;;;;6.60;5.47;;;;;;;;;;5072252;28;20227;-47
2024/01/30 11:47:39;;;;;;;8.33;6.00;;;;;;;;;;5072412;28;20256;-47
2024/01/30 11:50:06;;;;;;;12.83;5.83;;;;;;;;;;5072253;28;20230;-47
2024/01/30 11:52:32;;;;;;;7.13;5.93;;;;;;;;;;5072380;28;20201;-47
2024/01/30 11:54:58;;;;;;;5.93;5.10;;;;;;;;;;5072181;28;20558;-47
2024/01/30 11:57:24;;;;;;;5.83;5.23;;;;;;;;;;5072352;28;20206;-47
2024/01/30 11:59:50;;;;;;;6.57;5.63;;;;;;;;;;5072024;28;20269;-47
2024/01/30 12:02:17;;;;;;;5.60;5.00;;;;;;;;;;5072338;28;20235;-47
2024/01/30 12:04:44;;;;;;;14.00;5.63;;;;;;;;;;5072156;28;20199;-47
2024/01/30 12:07:10;;;;;;;7.67;5.50;;;;;;;;;;5071839;28;20204;-47
2024/01/30 12:09:36;;;;;;;6.40;5.80;;;;;;;;;;5072093;28;20210;-47
2024/01/30 12:12:03;;;;;;;8.87;6.13;;;;;;;;;;5072111;28;20646;-47
2024/01/30 12:14:29;;;;;;;7.20;5.60;;;;;;;;;;5071588;28;20240;-47
2024/01/30 12:16:55;;;;;;;9.27;6.23;;;;;;;;;;5071807;28;20725;-47
2024/01/30 12:19:24;;;;;;;7.47;5.90;;;;;;;;;;5071979;28;20226;-46
2024/01/30 12:21:55;;;;;;;8.33;6.13;;;;;;;;;;5071926;28;20215;-46
2024/01/30 12:24:22;;;;;;;8.90;6.37;;;;;;;;;;5071997;28;20202;-47
2024/01/30 12:26:48;;;;;;;7.77;6.13;;;;;;;;;;5071810;28;20203;-47
2024/01/30 12:29:15;;;;;;;8.97;5.57;;;;;;;;;;5072245;28;20731;-47
2024/01/30 12:31:42;;;;;;;7.33;6.50;;;;;;;;;;5071969;28;20199;-47
2024/01/30 12:34:08;;;;;;;9.57;6.17;;;;;;;;;;5071863;28;20249;-46
2024/01/30 12:36:35;;;;;;;6.60;5.83;;;;;;;;;;5071849;28;20200;-46
2024/01/30 12:39:02;;;;;;;7.47;6.23;;;;;;;;;;5071729;28;20751;-46
2024/01/30 12:41:28;;;;;;;8.00;6.73;;;;;;;;;;5071888;28;20662;-46
2024/01/30 12:43:54;;;;;;;8.57;6.87;;;;;;;;;;5071829;28;20282;-47
2024/01/30 12:46:20;;;;;;;8.57;6.30;;;;;;;;;;5071862;28;20211;-47
2024/01/30 12:48:46;;;;;;;6.80;5.90;;;;;;;;;;5071776;28;20207;-47
2024/01/30 12:51:12;;;;;;;7.07;6.00;;;;;;;;;;5071870;28;20613;-47
2024/01/30 12:53:38;;;;;;;7.03;6.33;;;;;;;;;;5071762;28;20274;-47
2024/01/30 12:56:06;;;;;;;7.13;5.83;;;;;;;;;;5071675;28;20564;-47
2024/01/30 12:58:32;;;;;;;6.80;6.07;;;;;;;;;;5071755;28;20745;-47
2024/01/30 13:00:58;;;;;;;8.80;6.07;;;;;;;;;;5071649;28;20319;-47
2024/01/30 13:03:24;;;;;;;7.07;6.00;;;;;;;;;;5071713;28;20205;-47
2024/01/30 13:05:50;;;;;;;9.33;6.73;;;;;;;;;;5071626;28;20274;-47
2024/01/30 13:08:16;;;;;;;9.83;5.77;;;;;;;;;;5071615;28;20691;-47
2024/01/30 13:10:42;;;;;;;8.13;6.37;;;;;;;;;;5071690;28;20202;-47
2024/01/30 13:13:09;;;;;;;7.60;6.57;;;;;;;;;;5071399;28;20241;-47
2024/01/30 13:15:35;;;;;;;11.30;6.40;;;;;;;;;;5071512;28;20616;-47
2024/01/30 13:18:02;;;;;;;8.87;6.40;;;;;;;;;;5071440;28;20218;-47
2024/01/30 13:20:28;;;;;;;9.37;6.43;;;;;;;;;;5073585;28;20297;-47
2024/01/30 13:22:54;;;;;;;10.33;6.93;;;;;;;;;;5074818;28;20662;-47
2024/01/30 13:25:20;;;;;;;8.10;6.10;;;;;;;;;;5074909;28;20290;-47
2024/01/30 13:27:46;;;;;;;7.53;6.50;;;;;;;;;;5074891;28;20225;-47
2024/01/30 13:30:13;;;;;;;7.40;5.93;;;;;;;;;;5075046;28;20249;-47
2024/01/30 13:32:41;;;;;;;7.17;6.47;;;;;;;;;;5074924;28;20199;-47
2024/01/30 13:35:07;;;;;;;8.33;6.27;;;;;;;;;;5074737;28;20198;-47
2024/01/30 13:37:33;;;;;;;7.33;6.47;;;;;;;;;;5074852;28;20577;-47
2024/01/30 13:40:00;;;;;;;12.27;7.20;;;;;;;;;;5074622;28;20250;-47
2024/01/30 13:42:25;;;;;;;8.17;7.17;;;;;;;;;;5074750;28;20290;-47
2024/01/30 13:44:52;;;;;;;8.87;6.47;;;;;;;;;;5074515;28;20223;-47
2024/01/30 13:47:21;;;;;;;9.50;6.47;;;;;;;;;;5074577;28;20641;-46
2024/01/30 13:49:47;;;;;;;9.17;6.47;;;;;;;;;;5074422;28;20563;-47
2024/01/30 13:52:13;;;;;;;8.80;6.23;;;;;;;;;;5074517;28;20206;-47
2024/01/30 13:54:39;;;;;;;10.97;6.43;;;;;;;;;;5074416;28;20204;-47
2024/01/30 13:57:06;;;;;;;10.00;7.07;;;;;;;;;;5074363;28;20279;-47
2024/01/30 13:59:32;;;;;;;8.27;6.47;;;;;;;;;;5074343;28;20223;-47
2024/01/30 14:01:58;;;;;;;8.97;6.20;;;;;;;;;;5074262;28;20202;-47
2024/01/30 14:04:25;;;;;;;8.80;6.53;;;;;;;;;;5074304;28;20627;-48
2024/01/30 14:06:51;;;;;;;10.10;8.83;;;;;;;;;;5073942;28;20199;-47
2024/01/30 14:09:18;;;;;;;11.80;10.17;;;;;;;;;;5074072;28;20721;-47
2024/01/30 14:11:44;;;;;;;12.57;9.30;;;;;;;;;;5074256;28;20195;-47
2024/01/30 14:14:10;;;;;;;16.97;8.03;;;;;;;;;;5073880;28;20233;-47
2024/01/30 14:16:36;;;;;;;7.97;6.57;;;;;;;;;;5073898;28;20686;-46
2024/01/30 14:19:01;;;;;;;7.07;6.30;;;;;;;;;;5073899;28;20658;-48
2024/01/30 14:21:29;;;;;;;8.73;6.97;;;;;;;;;;5074029;28;20203;-49
2024/01/30 14:23:55;;;;;;;8.33;6.27;;;;;;;;;;5073831;28;20200;-48